sensor_id;sensor_type;location;lat;lon;timestamp;pressure;altitude;pressure_sealevel;temperature;humidity
10071;BME280;5074;53.720;10.014;2023-08-12T00:01:10;101336.88;;;18.56;100.00
10071;BME280;5074;53.720;10.014;2023-08-12T00:03:39;101331.41;;;18.57;100.00
10071;BME280;5074;53.720;10.014;2023-08-12T00:06:07;101322.50;;;18.55;100.00
10071;BME280;5074;53.720;10.014;2023-08-12T00:08:35;101322.50;;;18.55;100.00
10071;BME280;5074;53.720;10.014;2023-08-12T00:11:03;101315.69;;;18.48;100.00
10071;BME280;5074;53.720;10.014;2023-08-12T00:13:33;101321.91;;;18.50;100.00
10071;BME280;5074;53.720;10.014;2023-08-12T00:16:01;101321.81;;;18.52;100.00
10071;BME280;5074;53.720;10.014;2023-08-12T00:18:29;101323.63;;;18.51;100.00
10071;BME280;5074;53.720;10.014;2023-08-12T00:21:06;101319.22;;;18.50;100.00
10071;BME280;5074;53.720;10.014;2023-08-12T00:23:38;101312.22;;;18.46;100.00
10071;BME280;5074;53.720;10.014;2023-08-12T00:26:07;101319.47;;;18.46;100.00
10071;BME280;5074;53.720;10.014;2023-08-12T00:28:36;101316.66;;;18.47;100.00
10071;BME280;5074;53.720;10.014;2023-08-12T00:31:05;101311.94;;;18.51;100.00
10071;BME280;5074;53.720;10.014;2023-08-12T00:33:33;101315.69;;;18.48;100.00
10071;BME280;5074;53.720;10.014;2023-08-12T00:36:01;101311.53;;;18.43;100.00
10071;BME280;5074;53.720;10.014;2023-08-12T00:38:29;101309.81;;;18.42;100.00
10071;BME280;5074;53.720;10.014;2023-08-12T00:40:57;101316.09;;;18.42;100.00
10071;BME280;5074;53.720;10.014;2023-08-12T00:43:26;101308.16;;;18.39;100.00
10071;BME280;5074;53.720;10.014;2023-08-12T00:45:55;101306.59;;;18.35;100.00
10071;BME280;5074;53.720;10.014;2023-08-12T00:48:25;101306.50;;;18.36;100.00
10071;BME280;5074;53.720;10.014;2023-08-12T00:50:53;101305.78;;;18.33;100.00
10071;BME280;5074;53.720;10.014;2023-08-12T00:53:21;101298.84;;;18.29;100.00
10071;BME280;5074;53.720;10.014;2023-08-12T00:55:49;101303.03;;;18.34;100.00
10071;BME280;5074;53.720;10.014;2023-08-12T00:58:18;101303.06;;;18.33;100.00
10071;BME280;5074;53.720;10.014;2023-08-12T01:00:46;101297.94;;;18.28;100.00
10071;BME280;5074;53.720;10.014;2023-08-12T01:03:18;101298.13;;;18.25;100.00
10071;BME280;5074;53.720;10.014;2023-08-12T01:05:47;101301.03;;;18.22;100.00
10071;BME280;5074;53.720;10.014;2023-08-12T01:08:15;101302.78;;;18.23;100.00
10071;BME280;5074;53.720;10.014;2023-08-12T01:10:47;101307.19;;;18.24;100.00
10071;BME280;5074;53.720;10.014;2023-08-12T01:13:25;101304.69;;;18.21;100.00
10071;BME280;5074;53.720;10.014;2023-08-12T01:15:58;101299.38;;;18.19;100.00
10071;BME280;5074;53.720;10.014;2023-08-12T01:18:28;101293.97;;;18.19;100.00
10071;BME280;5074;53.720;10.014;2023-08-12T01:20:56;101296.66;;;18.19;100.00
10071;BME280;5074;53.720;10.014;2023-08-12T01:23:26;101291.44;;;18.16;100.00
10071;BME280;5074;53.720;10.014;2023-08-12T01:25:54;101294.75;;;18.21;100.00
10071;BME280;5074;53.720;10.014;2023-08-12T01:28:22;101295.63;;;18.22;100.00
10071;BME280;5074;53.720;10.014;2023-08-12T01:30:55;101298.94;;;18.27;100.00
10071;BME280;5074;53.720;10.014;2023-08-12T01:33:29;101292.44;;;18.30;100.00
10071;BME280;5074;53.720;10.014;2023-08-12T01:36:08;101294.00;;;18.34;100.00
10071;BME280;5074;53.720;10.014;2023-08-12T01:38:39;101279.25;;;18.39;100.00
10071;BME280;5074;53.720;10.014;2023-08-12T01:41:09;101275.88;;;18.36;100.00
10071;BME280;5074;53.720;10.014;2023-08-12T01:43:38;101288.97;;;18.28;100.00
10071;BME280;5074;53.720;10.014;2023-08-12T01:46:06;101277.09;;;18.30;100.00
10071;BME280;5074;53.720;10.014;2023-08-12T01:48:34;101281.72;;;18.28;100.00
10071;BME280;5074;53.720;10.014;2023-08-12T01:51:02;101293.69;;;18.24;100.00
10071;BME280;5074;53.720;10.014;2023-08-12T01:53:31;101283.66;;;18.26;100.00
10071;BME280;5074;53.720;10.014;2023-08-12T01:56:01;101279.38;;;18.22;100.00
10071;BME280;5074;53.720;10.014;2023-08-12T01:58:29;101286.03;;;18.16;100.00
10071;BME280;5074;53.720;10.014;2023-08-12T02:00:57;101282.56;;;18.14;100.00
10071;BME280;5074;53.720;10.014;2023-08-12T02:03:25;101264.75;;;18.10;100.00
10071;BME280;5074;53.720;10.014;2023-08-12T02:05:53;101252.47;;;18.04;100.00
10071;BME280;5074;53.720;10.014;2023-08-12T02:08:22;101247.34;;;18.00;100.00
10071;BME280;5074;53.720;10.014;2023-08-12T02:10:50;101245.94;;;17.93;100.00
10071;BME280;5074;53.720;10.014;2023-08-12T02:13:20;101247.84;;;17.91;100.00
10071;BME280;5074;53.720;10.014;2023-08-12T02:15:48;101258.56;;;17.92;100.00
10071;BME280;5074;53.720;10.014;2023-08-12T02:18:16;101254.06;;;17.93;100.00
10071;BME280;5074;53.720;10.014;2023-08-12T02:20:46;101260.50;;;17.90;100.00
10071;BME280;5074;53.720;10.014;2023-08-12T02:23:14;101246.03;;;17.91;100.00
10071;BME280;5074;53.720;10.014;2023-08-12T02:25:42;101254.06;;;17.93;100.00
10071;BME280;5074;53.720;10.014;2023-08-12T02:28:11;101246.81;;;17.93;100.00
10071;BME280;5074;53.720;10.014;2023-08-12T02:30:43;101242.59;;;17.87;100.00
10071;BME280;5074;53.720;10.014;2023-08-12T02:33:11;101247.25;;;17.85;100.00
10071;BME280;5074;53.720;10.014;2023-08-12T02:35:39;101258.66;;;17.91;100.00
10071;BME280;5074;53.720;10.014;2023-08-12T02:38:07;101241.84;;;17.85;100.00
10071;BME280;5074;53.720;10.014;2023-08-12T02:40:35;101247.16;;;17.87;100.00
10071;BME280;5074;53.720;10.014;2023-08-12T02:43:03;101249.69;;;17.90;100.00
10071;BME280;5074;53.720;10.014;2023-08-12T02:45:32;101253.16;;;17.92;100.00
10071;BME280;5074;53.720;10.014;2023-08-12T02:48:01;101244.97;;;17.94;100.00
10071;BME280;5074;53.720;10.014;2023-08-12T02:50:29;101240.34;;;17.80;100.00
10071;BME280;5074;53.720;10.014;2023-08-12T02:52:57;101240.97;;;17.69;100.00
10071;BME280;5074;53.720;10.014;2023-08-12T02:55:26;101251.38;;;17.61;100.00
10071;BME280;5074;53.720;10.014;2023-08-12T02:57:54;101247.00;;;17.58;100.00
10071;BME280;5074;53.720;10.014;2023-08-12T03:00:22;101252.66;;;17.53;100.00
10071;BME280;5074;53.720;10.014;2023-08-12T03:02:51;101250.81;;;17.54;100.00
10071;BME280;5074;53.720;10.014;2023-08-12T03:05:21;101240.28;;;17.49;100.00
10071;BME280;5074;53.720;10.014;2023-08-12T03:07:49;101233.56;;;17.41;100.00
10071;BME280;5074;53.720;10.014;2023-08-12T03:10:18;101236.50;;;17.36;100.00
10071;BME280;5074;53.720;10.014;2023-08-12T03:12:46;101240.47;;;17.30;100.00
10071;BME280;5074;53.720;10.014;2023-08-12T03:15:14;101235.13;;;17.29;100.00
10071;BME280;5074;53.720;10.014;2023-08-12T03:17:42;101241.31;;;17.31;100.00
10071;BME280;5074;53.720;10.014;2023-08-12T03:20:11;101247.59;;;17.31;100.00
10071;BME280;5074;53.720;10.014;2023-08-12T03:22:40;101240.38;;;17.32;100.00
10071;BME280;5074;53.720;10.014;2023-08-12T03:25:08;101236.78;;;17.31;100.00
10071;BME280;5074;53.720;10.014;2023-08-12T03:27:37;101224.31;;;17.29;100.00
10071;BME280;5074;53.720;10.014;2023-08-12T03:30:06;101216.38;;;17.26;100.00
10071;BME280;5074;53.720;10.014;2023-08-12T03:32:34;101215.53;;;17.25;100.00
10071;BME280;5074;53.720;10.014;2023-08-12T03:35:03;101202.56;;;17.16;100.00
10071;BME280;5074;53.720;10.014;2023-08-12T03:37:31;101213.59;;;17.27;100.00
10071;BME280;5074;53.720;10.014;2023-08-12T03:40:01;101231.56;;;17.28;100.00
10071;BME280;5074;53.720;10.014;2023-08-12T03:42:30;101225.88;;;17.33;100.00
10071;BME280;5074;53.720;10.014;2023-08-12T03:44:58;101221.03;;;17.40;100.00
10071;BME280;5074;53.720;10.014;2023-08-12T03:47:26;101215.78;;;17.36;100.00
10071;BME280;5074;53.720;10.014;2023-08-12T03:49:54;101208.91;;;17.31;100.00
10071;BME280;5074;53.720;10.014;2023-08-12T03:52:22;101208.19;;;17.27;100.00
10071;BME280;5074;53.720;10.014;2023-08-12T03:54:51;101207.88;;;17.33;100.00
10071;BME280;5074;53.720;10.014;2023-08-12T03:57:21;101221.56;;;17.30;100.00
10071;BME280;5074;53.720;10.014;2023-08-12T03:59:49;101219.81;;;17.29;100.00
10071;BME280;5074;53.720;10.014;2023-08-12T04:02:17;101220.75;;;17.28;100.00
10071;BME280;5074;53.720;10.014;2023-08-12T04:04:45;101211.78;;;17.28;100.00
10071;BME280;5074;53.720;10.014;2023-08-12T04:07:13;101203.59;;;17.29;100.00
10071;BME280;5074;53.720;10.014;2023-08-12T04:09:41;101211.69;;;17.29;100.00
10071;BME280;5074;53.720;10.014;2023-08-12T04:12:09;101216.16;;;17.30;100.00
10071;BME280;5074;53.720;10.014;2023-08-12T04:14:39;101220.75;;;17.28;100.00
10071;BME280;5074;53.720;10.014;2023-08-12T04:17:07;101227.63;;;17.34;100.00
10071;BME280;5074;53.720;10.014;2023-08-12T04:19:36;101220.84;;;17.27;100.00
10071;BME280;5074;53.720;10.014;2023-08-12T04:22:05;101217.19;;;17.12;100.00
10071;BME280;5074;53.720;10.014;2023-08-12T04:24:33;101225.69;;;17.04;100.00
10071;BME280;5074;53.720;10.014;2023-08-12T04:27:01;101218.69;;;17.00;100.00
10071;BME280;5074;53.720;10.014;2023-08-12T04:29:29;101216.97;;;16.99;100.00
10071;BME280;5074;53.720;10.014;2023-08-12T04:31:59;101207.75;;;17.03;100.00
10071;BME280;5074;53.720;10.014;2023-08-12T04:34:27;101199.81;;;17.00;100.00
10071;BME280;5074;53.720;10.014;2023-08-12T04:36:55;101196.31;;;16.98;100.00
10071;BME280;5074;53.720;10.014;2023-08-12T04:39:23;101197.66;;;17.07;100.00
10071;BME280;5074;53.720;10.014;2023-08-12T04:41:52;101195.88;;;17.06;100.00
10071;BME280;5074;53.720;10.014;2023-08-12T04:44:20;101194.84;;;17.08;100.00
10071;BME280;5074;53.720;10.014;2023-08-12T04:46:48;101197.19;;;17.14;100.00
10071;BME280;5074;53.720;10.014;2023-08-12T04:49:18;101190.75;;;17.17;100.00
10071;BME280;5074;53.720;10.014;2023-08-12T04:51:47;101190.50;;;17.22;100.00
10071;BME280;5074;53.720;10.014;2023-08-12T04:54:15;101199.31;;;17.25;100.00
10071;BME280;5074;53.720;10.014;2023-08-12T04:56:43;101202.09;;;17.24;100.00
10071;BME280;5074;53.720;10.014;2023-08-12T04:59:11;101206.38;;;17.28;100.00
10071;BME280;5074;53.720;10.014;2023-08-12T05:01:39;101199.84;;;17.32;100.00
10071;BME280;5074;53.720;10.014;2023-08-12T05:04:29;101205.84;;;17.37;100.00
10071;BME280;5074;53.720;10.014;2023-08-12T05:06:57;101203.75;;;17.42;100.00
10071;BME280;5074;53.720;10.014;2023-08-12T05:09:25;101205.16;;;17.49;100.00
10071;BME280;5074;53.720;10.014;2023-08-12T05:11:53;101208.63;;;17.51;100.00
10071;BME280;5074;53.720;10.014;2023-08-12T05:14:21;101212.03;;;17.55;100.00
10071;BME280;5074;53.720;10.014;2023-08-12T05:16:49;101210.19;;;17.56;100.00
10071;BME280;5074;53.720;10.014;2023-08-12T05:19:17;101224.47;;;17.58;100.00
10071;BME280;5074;53.720;10.014;2023-08-12T05:21:47;101211.06;;;17.56;100.00
10071;BME280;5074;53.720;10.014;2023-08-12T05:24:15;101202.94;;;17.56;100.00
10071;BME280;5074;53.720;10.014;2023-08-12T05:26:43;101213.66;;;17.58;100.00
10071;BME280;5074;53.720;10.014;2023-08-12T05:29:11;101205.47;;;17.59;100.00
10071;BME280;5074;53.720;10.014;2023-08-12T05:31:39;101199.03;;;17.62;100.00
10071;BME280;5074;53.720;10.014;2023-08-12T05:34:07;101214.56;;;17.58;100.00
10071;BME280;5074;53.720;10.014;2023-08-12T05:36:35;101233.41;;;17.60;100.00
10071;BME280;5074;53.720;10.014;2023-08-12T05:39:06;101234.06;;;17.63;100.00
10071;BME280;5074;53.720;10.014;2023-08-12T05:41:34;101231.19;;;17.66;100.00
10071;BME280;5074;53.720;10.014;2023-08-12T05:44:03;101234.88;;;17.65;100.00
10071;BME280;5074;53.720;10.014;2023-08-12T05:46:31;101232.16;;;17.65;100.00
10071;BME280;5074;53.720;10.014;2023-08-12T05:48:59;101223.88;;;17.68;100.00
10071;BME280;5074;53.720;10.014;2023-08-12T05:51:27;101225.53;;;17.71;100.00
10071;BME280;5074;53.720;10.014;2023-08-12T05:53:56;101222.75;;;17.73;100.00
10071;BME280;5074;53.720;10.014;2023-08-12T05:56:26;101226.13;;;17.76;100.00
10071;BME280;5074;53.720;10.014;2023-08-12T05:58:54;101225.00;;;17.80;100.00
10071;BME280;5074;53.720;10.014;2023-08-12T06:01:22;101219.59;;;17.80;100.00
10071;BME280;5074;53.720;10.014;2023-08-12T06:03:50;101219.50;;;17.82;100.00
10071;BME280;5074;53.720;10.014;2023-08-12T06:06:18;101220.28;;;17.84;100.00
10071;BME280;5074;53.720;10.014;2023-08-12T06:08:46;101214.19;;;17.80;100.00
10071;BME280;5074;53.720;10.014;2023-08-12T06:11:14;101224.91;;;17.82;100.00
10071;BME280;5074;53.720;10.014;2023-08-12T06:13:44;101224.03;;;17.81;100.00
10071;BME280;5074;53.720;10.014;2023-08-12T06:16:12;101224.13;;;17.80;100.00
10071;BME280;5074;53.720;10.014;2023-08-12T06:18:40;101227.78;;;17.79;100.00
10071;BME280;5074;53.720;10.014;2023-08-12T06:21:08;101226.03;;;17.78;100.00
10071;BME280;5074;53.720;10.014;2023-08-12T06:23:37;101226.94;;;17.78;100.00
10071;BME280;5074;53.720;10.014;2023-08-12T06:26:05;101227.03;;;17.77;100.00
10071;BME280;5074;53.720;10.014;2023-08-12T06:28:33;101224.41;;;17.75;100.00
10071;BME280;5074;53.720;10.014;2023-08-12T06:31:02;101223.59;;;17.73;100.00
10071;BME280;5074;53.720;10.014;2023-08-12T06:33:30;101222.03;;;17.69;100.00
10071;BME280;5074;53.720;10.014;2023-08-12T06:35:59;101239.25;;;17.68;100.00
10071;BME280;5074;53.720;10.014;2023-08-12T06:38:27;101239.38;;;17.65;100.00
10071;BME280;5074;53.720;10.014;2023-08-12T06:40:55;101240.38;;;17.64;100.00
10071;BME280;5074;53.720;10.014;2023-08-12T06:43:23;101238.72;;;17.61;100.00
10071;BME280;5074;53.720;10.014;2023-08-12T06:45:55;101242.44;;;17.59;100.00
10071;BME280;5074;53.720;10.014;2023-08-12T06:48:25;101229.47;;;17.49;100.00
10071;BME280;5074;53.720;10.014;2023-08-12T06:50:53;101227.63;;;17.50;100.00
10071;BME280;5074;53.720;10.014;2023-08-12T06:53:22;101220.38;;;17.50;100.00
10071;BME280;5074;53.720;10.014;2023-08-12T06:55:50;101203.50;;;17.47;100.00
10071;BME280;5074;53.720;10.014;2023-08-12T06:58:18;101203.22;;;17.51;100.00
10071;BME280;5074;53.720;10.014;2023-08-12T07:00:46;101195.81;;;17.55;100.00
10071;BME280;5074;53.720;10.014;2023-08-12T07:03:15;101191.19;;;17.57;100.00
10071;BME280;5074;53.720;10.014;2023-08-12T07:05:44;101191.63;;;17.65;100.00
10071;BME280;5074;53.720;10.014;2023-08-12T07:08:12;101189.25;;;17.59;100.00
10071;BME280;5074;53.720;10.014;2023-08-12T07:10:41;101179.84;;;17.66;100.00
10071;BME280;5074;53.720;10.014;2023-08-12T07:13:10;101188.56;;;17.71;100.00
10071;BME280;5074;53.720;10.014;2023-08-12T07:15:38;101176.31;;;17.80;100.00
10071;BME280;5074;53.720;10.014;2023-08-12T07:18:06;101178.84;;;17.83;100.00
10071;BME280;5074;53.720;10.014;2023-08-12T07:20:35;101175.66;;;17.93;100.00
10071;BME280;5074;53.720;10.014;2023-08-12T07:23:04;101185.13;;;18.00;100.00
10071;BME280;5074;53.720;10.014;2023-08-12T07:25:33;101170.94;;;18.11;100.00
10071;BME280;5074;53.720;10.014;2023-08-12T07:28:01;101172.03;;;18.22;100.00
10071;BME280;5074;53.720;10.014;2023-08-12T07:30:29;101177.19;;;18.27;100.00
10071;BME280;5074;53.720;10.014;2023-08-12T07:32:57;101172.47;;;18.45;100.00
10071;BME280;5074;53.720;10.014;2023-08-12T07:35:25;101166.38;;;18.70;100.00
10071;BME280;5074;53.720;10.014;2023-08-12T07:37:53;101164.16;;;18.63;100.00
10071;BME280;5074;53.720;10.014;2023-08-12T07:40:23;101160.88;;;18.72;100.00
10071;BME280;5074;53.720;10.014;2023-08-12T07:42:51;101156.97;;;18.76;100.00
10071;BME280;5074;53.720;10.014;2023-08-12T07:45:21;101162.59;;;19.02;100.00
10071;BME280;5074;53.720;10.014;2023-08-12T07:47:50;101158.81;;;19.19;100.00
10071;BME280;5074;53.720;10.014;2023-08-12T07:50:19;101158.97;;;19.30;100.00
10071;BME280;5074;53.720;10.014;2023-08-12T07:52:47;101160.91;;;19.28;100.00
10071;BME280;5074;53.720;10.014;2023-08-12T07:55:16;101144.91;;;19.38;100.00
10071;BME280;5074;53.720;10.014;2023-08-12T07:57:45;101147.63;;;19.38;100.00
10071;BME280;5074;53.720;10.014;2023-08-12T08:00:14;101148.16;;;19.57;100.00
10071;BME280;5074;53.720;10.014;2023-08-12T08:02:42;101144.38;;;19.73;100.00
10071;BME280;5074;53.720;10.014;2023-08-12T08:05:10;101141.88;;;19.70;100.00
10071;BME280;5074;53.720;10.014;2023-08-12T08:07:39;101141.88;;;19.70;100.00
10071;BME280;5074;53.720;10.014;2023-08-12T08:10:07;101132.16;;;19.80;100.00
10071;BME280;5074;53.720;10.014;2023-08-12T08:12:35;101141.63;;;19.87;100.00
10071;BME280;5074;53.720;10.014;2023-08-12T08:15:06;101142.28;;;19.91;100.00
10071;BME280;5074;53.720;10.014;2023-08-12T08:17:34;101151.81;;;19.84;100.00
10071;BME280;5074;53.720;10.014;2023-08-12T08:20:06;101144.81;;;20.07;100.00
10071;BME280;5074;53.720;10.014;2023-08-12T08:22:34;101152.09;;;20.19;100.00
10071;BME280;5074;53.720;10.014;2023-08-12T08:25:02;101150.69;;;20.26;100.00
10071;BME280;5074;53.720;10.014;2023-08-12T08:27:30;101152.09;;;20.45;100.00
10071;BME280;5074;53.720;10.014;2023-08-12T08:29:59;101150.94;;;20.75;100.00
10071;BME280;5074;53.720;10.014;2023-08-12T08:32:28;101136.59;;;20.73;100.00
10071;BME280;5074;53.720;10.014;2023-08-12T08:34:57;101132.75;;;20.88;100.00
10071;BME280;5074;53.720;10.014;2023-08-12T08:37:25;101137.19;;;21.02;100.00
10071;BME280;5074;53.720;10.014;2023-08-12T08:39:53;101144.00;;;21.08;100.00
10071;BME280;5074;53.720;10.014;2023-08-12T08:42:24;101140.53;;;21.06;100.00
10071;BME280;5074;53.720;10.014;2023-08-12T08:44:53;101146.00;;;20.93;100.00
10071;BME280;5074;53.720;10.014;2023-08-12T08:47:25;101148.78;;;21.04;100.00
10071;BME280;5074;53.720;10.014;2023-08-12T08:49:56;101144.63;;;21.11;100.00
10071;BME280;5074;53.720;10.014;2023-08-12T08:52:24;101141.88;;;21.24;100.00
10071;BME280;5074;53.720;10.014;2023-08-12T08:54:53;101142.31;;;21.31;100.00
10071;BME280;5074;53.720;10.014;2023-08-12T08:57:21;101142.41;;;21.29;100.00
10071;BME280;5074;53.720;10.014;2023-08-12T09:00:06;101144.78;;;21.34;100.00
10071;BME280;5074;53.720;10.014;2023-08-12T09:02:40;101143.59;;;21.38;100.00
10071;BME280;5074;53.720;10.014;2023-08-12T09:05:11;101149.41;;;21.45;100.00
10071;BME280;5074;53.720;10.014;2023-08-12T09:07:42;101156.44;;;21.60;100.00
10071;BME280;5074;53.720;10.014;2023-08-12T09:10:11;101141.03;;;21.48;100.00
10071;BME280;5074;53.720;10.014;2023-08-12T09:12:42;101138.31;;;21.48;100.00
10071;BME280;5074;53.720;10.014;2023-08-12T09:15:11;101138.63;;;21.56;100.00
10071;BME280;5074;53.720;10.014;2023-08-12T09:17:39;101138.84;;;21.53;100.00
10071;BME280;5074;53.720;10.014;2023-08-12T09:20:07;101136.03;;;21.55;100.00
10071;BME280;5074;53.720;10.014;2023-08-12T09:22:45;101130.63;;;21.66;100.00
10071;BME280;5074;53.720;10.014;2023-08-12T09:25:13;101129.53;;;21.68;100.00
10071;BME280;5074;53.720;10.014;2023-08-12T09:27:43;101134.75;;;21.72;100.00
10071;BME280;5074;53.720;10.014;2023-08-12T09:30:12;101133.72;;;21.61;100.00
10071;BME280;5074;53.720;10.014;2023-08-12T09:32:40;101131.59;;;21.54;100.00
10071;BME280;5074;53.720;10.014;2023-08-12T09:35:15;101135.22;;;21.65;100.00
10071;BME280;5074;53.720;10.014;2023-08-12T09:37:46;101134.88;;;21.70;100.00
10071;BME280;5074;53.720;10.014;2023-08-12T09:40:14;101126.22;;;21.76;100.00
10071;BME280;5074;53.720;10.014;2023-08-12T09:42:46;101121.44;;;21.80;100.00
10071;BME280;5074;53.720;10.014;2023-08-12T09:45:15;101123.66;;;21.86;100.00
10071;BME280;5074;53.720;10.014;2023-08-12T09:47:47;101125.53;;;21.97;100.00
10071;BME280;5074;53.720;10.014;2023-08-12T09:50:15;101132.44;;;21.78;100.00
10071;BME280;5074;53.720;10.014;2023-08-12T09:52:43;101128.66;;;21.68;100.00
10071;BME280;5074;53.720;10.014;2023-08-12T09:55:15;101133.41;;;21.53;100.00
10071;BME280;5074;53.720;10.014;2023-08-12T09:57:43;101128.75;;;21.55;100.00
10071;BME280;5074;53.720;10.014;2023-08-12T10:00:12;101120.25;;;21.47;100.00
10071;BME280;5074;53.720;10.014;2023-08-12T10:02:44;101120.84;;;21.39;100.00
10071;BME280;5074;53.720;10.014;2023-08-12T10:05:22;101122.84;;;21.24;100.00
10071;BME280;5074;53.720;10.014;2023-08-12T10:07:53;101126.38;;;21.13;100.00
10071;BME280;5074;53.720;10.014;2023-08-12T10:10:24;101130.19;;;21.11;100.00
10071;BME280;5074;53.720;10.014;2023-08-12T10:12:53;101126.81;;;21.07;100.00
10071;BME280;5074;53.720;10.014;2023-08-12T10:15:22;101128.25;;;21.00;100.00
10071;BME280;5074;53.720;10.014;2023-08-12T10:17:51;101123.16;;;20.95;100.00
10071;BME280;5074;53.720;10.014;2023-08-12T10:20:21;101123.31;;;20.81;100.00
10071;BME280;5074;53.720;10.014;2023-08-12T10:22:51;101123.09;;;20.71;100.00
10071;BME280;5074;53.720;10.014;2023-08-12T10:25:19;101119.94;;;20.64;100.00
10071;BME280;5074;53.720;10.014;2023-08-12T10:27:50;101121.16;;;20.60;100.00
10071;BME280;5074;53.720;10.014;2023-08-12T10:30:20;101119.28;;;20.61;100.00
10071;BME280;5074;53.720;10.014;2023-08-12T10:32:49;101113.00;;;20.60;100.00
10071;BME280;5074;53.720;10.014;2023-08-12T10:35:17;101109.63;;;20.70;100.00
10071;BME280;5074;53.720;10.014;2023-08-12T10:37:48;101111.81;;;20.77;100.00
10071;BME280;5074;53.720;10.014;2023-08-12T10:40:22;101111.69;;;20.79;100.00
10071;BME280;5074;53.720;10.014;2023-08-12T10:42:51;101108.31;;;20.75;100.00
10071;BME280;5074;53.720;10.014;2023-08-12T10:45:20;101106.03;;;20.82;100.00
10071;BME280;5074;53.720;10.014;2023-08-12T10:48:10;101104.72;;;20.88;100.00
10071;BME280;5074;53.720;10.014;2023-08-12T10:50:43;101097.28;;;21.03;100.00
10071;BME280;5074;53.720;10.014;2023-08-12T10:53:23;101103.13;;;21.09;100.00
10071;BME280;5074;53.720;10.014;2023-08-12T10:55:57;101092.66;;;21.16;100.00
10071;BME280;5074;53.720;10.014;2023-08-12T10:58:34;101088.72;;;21.20;100.00
10071;BME280;5074;53.720;10.014;2023-08-12T11:01:02;101092.97;;;21.24;100.00
10071;BME280;5074;53.720;10.014;2023-08-12T11:03:32;101089.44;;;21.35;100.00
10071;BME280;5074;53.720;10.014;2023-08-12T11:06:04;101081.00;;;21.27;100.00
10071;BME280;5074;53.720;10.014;2023-08-12T11:08:33;101091.00;;;21.26;100.00
10071;BME280;5074;53.720;10.014;2023-08-12T11:11:02;101085.53;;;21.39;100.00
10071;BME280;5074;53.720;10.014;2023-08-12T11:13:31;101076.72;;;21.36;100.00
10071;BME280;5074;53.720;10.014;2023-08-12T11:16:07;101072.00;;;21.38;100.00
10071;BME280;5074;53.720;10.014;2023-08-12T11:18:35;101071.94;;;21.39;100.00
10071;BME280;5074;53.720;10.014;2023-08-12T11:21:04;101075.63;;;21.38;100.00
10071;BME280;5074;53.720;10.014;2023-08-12T11:23:33;101071.41;;;21.58;100.00
10071;BME280;5074;53.720;10.014;2023-08-12T11:26:03;101068.81;;;21.57;100.00
10071;BME280;5074;53.720;10.014;2023-08-12T11:28:32;101063.38;;;21.57;100.00
10071;BME280;5074;53.720;10.014;2023-08-12T11:31:01;101059.28;;;21.51;100.00
10071;BME280;5074;53.720;10.014;2023-08-12T11:33:30;101068.59;;;21.71;100.00
10071;BME280;5074;53.720;10.014;2023-08-12T11:35:59;101062.16;;;21.61;100.00
10071;BME280;5074;53.720;10.014;2023-08-12T11:38:27;101059.81;;;21.67;100.00
10071;BME280;5074;53.720;10.014;2023-08-12T11:40:55;101054.19;;;21.58;100.00
10071;BME280;5074;53.720;10.014;2023-08-12T11:43:23;101052.00;;;21.39;100.00
10071;BME280;5074;53.720;10.014;2023-08-12T11:45:55;101056.25;;;21.19;100.00
10071;BME280;5074;53.720;10.014;2023-08-12T11:48:23;101051.16;;;21.14;100.00
10071;BME280;5074;53.720;10.014;2023-08-12T11:50:51;101063.34;;;21.08;100.00
10071;BME280;5074;53.720;10.014;2023-08-12T11:53:19;101056.47;;;20.91;100.00
10071;BME280;5074;53.720;10.014;2023-08-12T11:55:48;101054.31;;;20.84;100.00
10071;BME280;5074;53.720;10.014;2023-08-12T11:58:16;101045.75;;;20.77;100.00
10071;BME280;5074;53.720;10.014;2023-08-12T12:00:47;101054.34;;;20.71;100.00
10071;BME280;5074;53.720;10.014;2023-08-12T12:03:17;101052.19;;;20.76;100.00
10071;BME280;5074;53.720;10.014;2023-08-12T12:05:46;101054.81;;;20.52;100.00
10071;BME280;5074;53.720;10.014;2023-08-12T12:08:15;101056.34;;;20.43;100.00
10071;BME280;5074;53.720;10.014;2023-08-12T12:10:43;101061.56;;;20.33;100.00
10071;BME280;5074;53.720;10.014;2023-08-12T12:13:11;101058.00;;;20.33;100.00
10071;BME280;5074;53.720;10.014;2023-08-12T12:15:42;101048.22;;;20.17;100.00
10071;BME280;5074;53.720;10.014;2023-08-12T12:18:11;101032.06;;;20.03;100.00
10071;BME280;5074;53.720;10.014;2023-08-12T12:20:55;101026.53;;;19.91;100.00
10071;BME280;5074;53.720;10.014;2023-08-12T12:23:27;101023.41;;;19.85;100.00
10071;BME280;5074;53.720;10.014;2023-08-12T12:25:59;101023.81;;;19.78;100.00
10071;BME280;5074;53.720;10.014;2023-08-12T12:28:28;101015.09;;;19.73;100.00
10071;BME280;5074;53.720;10.014;2023-08-12T12:30:56;100994.81;;;19.66;100.00
10071;BME280;5074;53.720;10.014;2023-08-12T12:33:25;100991.22;;;19.66;100.00
10071;BME280;5074;53.720;10.014;2023-08-12T12:35:54;101002.28;;;19.63;100.00
10071;BME280;5074;53.720;10.014;2023-08-12T12:38:26;100998.72;;;19.62;100.00
10071;BME280;5074;53.720;10.014;2023-08-12T12:40:55;100991.44;;;19.63;100.00
10071;BME280;5074;53.720;10.014;2023-08-12T12:43:23;100986.69;;;19.66;100.00
10071;BME280;5074;53.720;10.014;2023-08-12T12:45:51;100980.47;;;19.64;100.00
10071;BME280;5074;53.720;10.014;2023-08-12T12:48:19;100975.84;;;19.66;100.00
10071;BME280;5074;53.720;10.014;2023-08-12T12:50:47;100983.66;;;19.71;100.00